createdAt,value
2019-05-22T00:00:29.311Z,10.72
2019-05-22T00:03:05.267Z,9.83
2019-05-22T00:05:34.960Z,8.70
2019-05-22T00:08:09.221Z,11.68
2019-05-22T00:10:39.418Z,10.53
2019-05-22T00:13:13.309Z,9.25
2019-05-22T00:15:42.791Z,10.23
2019-05-22T00:18:12.968Z,11.15
2019-05-22T00:20:42.122Z,10.80
2019-05-22T00:23:11.645Z,10.43
2019-05-22T00:25:43.511Z,11.03
2019-05-22T00:28:12.922Z,10.40
2019-05-22T00:30:44.510Z,11.90
2019-05-22T00:33:14.904Z,8.67
2019-05-22T00:35:45.362Z,10.83
2019-05-22T00:38:15.199Z,8.23
2019-05-22T00:40:45.374Z,9.33
2019-05-22T00:43:17.203Z,12.30
2019-05-22T00:45:48.986Z,13.38
2019-05-22T00:48:20.801Z,8.13
2019-05-22T00:51:04.344Z,10.70
2019-05-22T00:53:44.389Z,11.43
2019-05-22T00:56:29.759Z,8.25
2019-05-22T00:59:00.487Z,10.10
2019-05-22T01:01:34.042Z,7.77
2019-05-22T01:04:05.388Z,11.43
2019-05-22T01:06:35.692Z,12.45
2019-05-22T01:09:08.824Z,8.80
2019-05-22T01:11:39.659Z,9.47
2019-05-22T01:14:09.547Z,7.58
2019-05-22T01:16:40.070Z,10.90
2019-05-22T01:19:10.883Z,10.78
2019-05-22T01:21:40.186Z,13.37
2019-05-22T01:24:11.165Z,13.10
2019-05-22T01:26:41.844Z,12.43
2019-05-22T01:29:11.758Z,12.35
2019-05-22T01:31:41.966Z,12.27
2019-05-22T01:34:12.775Z,11.68
2019-05-22T01:36:49.178Z,10.23
2019-05-22T01:39:43.270Z,7.28
2019-05-22T01:42:16.522Z,10.13
2019-05-22T01:44:59.771Z,9.63
2019-05-22T01:47:26.938Z,9.53
2019-05-22T01:49:56.333Z,8.50
2019-05-22T01:52:26.646Z,8.23
2019-05-22T01:54:57.753Z,10.20
2019-05-22T01:57:27.584Z,10.33
2019-05-22T01:59:57.028Z,14.53
2019-05-22T02:02:26.182Z,12.47
2019-05-22T02:04:56.114Z,12.47
2019-05-22T02:07:25.356Z,11.97
2019-05-22T02:09:56.862Z,13.13
2019-05-22T02:12:28.917Z,10.10
2019-05-22T02:14:57.949Z,12.03
2019-05-22T02:17:31.851Z,13.10
2019-05-22T02:20:00.535Z,16.53
2019-05-22T02:22:30.718Z,16.73
2019-05-22T02:25:00.627Z,12.50
2019-05-22T02:27:30.310Z,16.93
2019-05-22T02:29:58.988Z,14.68
2019-05-22T02:32:29.440Z,17.20
2019-05-22T02:34:58.114Z,18.37
2019-05-22T02:37:29.753Z,17.97
2019-05-22T02:39:58.894Z,18.10
2019-05-22T02:42:30.845Z,19.47
2019-05-22T02:45:00.928Z,17.07
2019-05-22T02:47:30.453Z,15.63
2019-05-22T02:49:59.570Z,18.30
2019-05-22T02:52:28.195Z,17.13
2019-05-22T02:54:57.514Z,20.17
2019-05-22T02:57:28.330Z,16.67
2019-05-22T02:59:58.894Z,17.00
2019-05-22T03:02:28.206Z,15.20
2019-05-22T03:05:03.989Z,16.83
2019-05-22T03:07:33.863Z,9.73
2019-05-22T03:10:03.812Z,14.90
2019-05-22T03:12:36.025Z,19.80
2019-05-22T03:15:13.180Z,17.70
2019-05-22T03:17:43.645Z,16.35
2019-05-22T03:20:16.474Z,13.93
2019-05-22T03:22:52.357Z,17.77
2019-05-22T03:25:23.049Z,20.20
2019-05-22T03:27:52.878Z,20.50
2019-05-22T03:30:34.825Z,17.90
2019-05-22T03:33:06.218Z,17.53
2019-05-22T03:35:44.427Z,14.97
2019-05-22T03:38:13.410Z,16.60
2019-05-22T03:40:42.990Z,16.20
2019-05-22T03:43:17.154Z,18.33
2019-05-22T03:45:46.205Z,17.90
2019-05-22T03:48:16.156Z,10.60
2019-05-22T03:50:45.395Z,13.90
2019-05-22T03:53:17.022Z,14.23
2019-05-22T03:55:48.632Z,15.37
2019-05-22T03:58:18.933Z,14.17
2019-05-22T04:00:51.688Z,11.17
2019-05-22T04:03:21.183Z,13.00
2019-05-22T04:05:50.317Z,14.03
2019-05-22T04:08:21.277Z,10.70
2019-05-22T04:10:59.034Z,15.57
2019-05-22T04:13:28.918Z,14.27
2019-05-22T04:15:58.353Z,9.70
2019-05-22T04:18:27.033Z,11.70
2019-05-22T04:20:56.913Z,13.67
2019-05-22T04:23:25.624Z,11.57
2019-05-22T04:25:55.045Z,11.70
2019-05-22T04:28:23.841Z,13.03
2019-05-22T04:30:52.987Z,11.00
2019-05-22T04:33:21.600Z,12.87
2019-05-22T04:35:50.168Z,13.30
2019-05-22T04:38:18.854Z,12.33
2019-05-22T04:40:48.975Z,8.73
2019-05-22T04:43:20.815Z,9.53
2019-05-22T04:45:51.258Z,7.43
2019-05-22T04:48:19.986Z,8.43
2019-05-22T04:50:50.126Z,8.73
2019-05-22T04:53:18.835Z,8.60
2019-05-22T04:55:47.412Z,7.70
2019-05-22T04:58:17.669Z,7.97
2019-05-22T05:00:46.280Z,5.47
2019-05-22T05:03:15.901Z,5.77
2019-05-22T05:05:54.300Z,5.63
2019-05-22T05:08:24.140Z,5.97
2019-05-22T05:10:53.822Z,6.60
2019-05-22T05:13:23.190Z,5.23
2019-05-22T05:15:51.806Z,6.17
2019-05-22T05:18:22.006Z,4.77
2019-05-22T05:20:50.608Z,5.77
2019-05-22T05:23:19.525Z,6.08
2019-05-22T05:25:48.684Z,5.47
2019-05-22T05:28:17.701Z,5.20
2019-05-22T05:30:46.336Z,6.87
2019-05-22T05:33:14.827Z,7.80
2019-05-22T05:35:44.525Z,7.27
2019-05-22T05:38:14.006Z,6.83
2019-05-22T05:40:42.548Z,6.53
2019-05-22T05:43:12.590Z,6.40
2019-05-22T05:45:43.161Z,7.87
2019-05-22T05:48:13.987Z,5.67
2019-05-22T05:50:48.101Z,5.80
2019-05-22T05:53:20.517Z,7.20
2019-05-22T05:55:55.360Z,6.47
2019-05-22T05:58:29.750Z,8.20
2019-05-22T06:01:03.219Z,6.43
2019-05-22T06:03:34.937Z,5.23
2019-05-22T06:06:26.053Z,5.97
2019-05-22T06:08:56.404Z,6.30
2019-05-22T06:11:34.538Z,7.03
2019-05-22T06:14:06.392Z,8.60
2019-05-22T06:19:33.854Z,9.00
2019-05-22T06:22:04.267Z,5.33
2019-05-22T06:24:38.321Z,7.97
2019-05-22T06:27:31.585Z,5.23
2019-05-22T06:30:06.390Z,7.20
2019-05-22T06:32:57.742Z,6.13
2019-05-22T06:35:30.083Z,6.27
2019-05-22T06:38:35.043Z,8.53
2019-05-22T06:41:03.507Z,5.47
2019-05-22T06:43:35.132Z,5.83
2019-05-22T06:46:03.746Z,6.00
2019-05-22T06:48:32.349Z,4.67
2019-05-22T06:51:20.415Z,8.60
2019-05-22T06:53:49.328Z,7.30
2019-05-22T06:56:17.943Z,6.33
2019-05-22T06:58:46.441Z,6.67
2019-05-22T07:01:15.118Z,6.47
2019-05-22T07:03:43.945Z,8.17
2019-05-22T07:06:12.537Z,6.63
2019-05-22T07:08:41.147Z,5.60
2019-05-22T07:11:11.253Z,5.70
2019-05-22T07:13:39.845Z,4.10
2019-05-22T07:16:08.318Z,6.37
2019-05-22T07:18:37.632Z,4.63
2019-05-22T07:21:06.667Z,4.50
2019-05-22T07:23:35.156Z,4.00
2019-05-22T07:26:06.245Z,5.53
2019-05-22T07:28:35.521Z,6.12
2019-05-22T07:31:06.042Z,4.03
2019-05-22T07:33:35.079Z,5.63
2019-05-22T07:36:15.911Z,4.17
2019-05-22T07:38:35.209Z,6.10
2019-05-22T07:41:06.031Z,5.07
2019-05-22T07:43:35.033Z,6.60
2019-05-22T07:46:03.915Z,6.10
2019-05-22T07:48:32.893Z,7.23
2019-05-22T07:51:04.156Z,8.87
2019-05-22T07:53:32.943Z,5.47
2019-05-22T07:56:06.373Z,6.73
2019-05-22T07:58:36.057Z,6.33
2019-05-22T08:01:06.488Z,9.67
2019-05-22T08:03:36.162Z,8.73
2019-05-22T08:06:08.276Z,5.70
2019-05-22T08:08:38.112Z,6.13
2019-05-22T08:11:07.516Z,10.13
2019-05-22T08:13:37.993Z,9.27
2019-05-22T08:16:08.574Z,8.17
2019-05-22T08:18:39.010Z,15.37
2019-05-22T08:21:09.313Z,9.50
2019-05-22T08:23:38.216Z,9.83
2019-05-22T08:26:09.471Z,13.07
2019-05-22T08:28:38.982Z,11.83
2019-05-22T08:31:09.250Z,10.00
2019-05-22T08:33:39.321Z,11.40
2019-05-22T08:36:08.730Z,10.47
2019-05-22T08:38:38.629Z,11.30
2019-05-22T08:41:09.252Z,5.53
2019-05-22T08:44:03.095Z,7.70
2019-05-22T08:46:11.680Z,7.55
2019-05-22T08:48:47.379Z,7.85
2019-05-22T08:51:12.579Z,9.65
2019-05-22T08:53:47.356Z,9.73
2019-05-22T08:56:13.159Z,11.63
2019-05-22T08:58:42.603Z,11.67
2019-05-22T09:01:11.912Z,9.93
2019-05-22T09:03:40.519Z,10.35
2019-05-22T09:06:09.311Z,6.83
2019-05-22T09:08:37.842Z,10.07
2019-05-22T09:11:06.719Z,12.00
2019-05-22T09:13:35.270Z,10.32
2019-05-22T09:16:05.465Z,9.60
2019-05-22T09:18:34.214Z,10.13
2019-05-22T09:21:04.475Z,10.43
2019-05-22T09:23:34.413Z,11.55
2019-05-22T09:26:03.756Z,8.75
2019-05-22T09:28:33.953Z,11.53
2019-05-22T09:31:02.667Z,13.05
2019-05-22T09:33:33.069Z,10.13
2019-05-22T09:36:01.848Z,8.13
2019-05-22T09:38:31.209Z,8.65
2019-05-22T09:41:00.741Z,11.75
2019-05-22T09:43:29.420Z,9.70
2019-05-22T09:45:58.008Z,6.25
2019-05-22T09:48:27.063Z,7.58
2019-05-22T09:50:58.802Z,8.33
2019-05-22T09:53:28.881Z,11.10
2019-05-22T09:55:58.132Z,9.65
2019-05-22T09:58:27.702Z,11.73
2019-05-22T10:00:56.350Z,11.12
2019-05-22T10:03:25.417Z,13.65
2019-05-22T10:05:54.082Z,9.85
2019-05-22T10:08:22.801Z,10.13
2019-05-22T10:10:51.823Z,10.67
2019-05-22T10:13:20.772Z,11.20
2019-05-22T10:15:49.393Z,9.75
2019-05-22T10:18:18.441Z,10.18
2019-05-22T10:20:47.998Z,10.70
2019-05-22T10:23:17.373Z,12.53
2019-05-22T10:25:46.169Z,13.05
2019-05-22T10:28:15.030Z,12.73
2019-05-22T10:30:43.615Z,10.43
2019-05-22T10:33:12.278Z,10.48
2019-05-22T10:35:41.147Z,11.63
2019-05-22T10:38:10.393Z,15.63
2019-05-22T10:40:39.078Z,17.97
2019-05-22T10:43:07.843Z,13.75
2019-05-22T10:45:36.495Z,15.45
2019-05-22T10:48:05.215Z,12.28
2019-05-22T10:50:34.477Z,14.00
2019-05-22T10:53:03.680Z,10.65
2019-05-22T10:55:33.292Z,10.68
2019-05-22T10:58:01.876Z,10.88
2019-05-22T11:00:30.502Z,9.53
2019-05-22T11:02:59.423Z,13.62
2019-05-22T11:05:28.191Z,8.03
2019-05-22T11:07:57.138Z,11.50
2019-05-22T11:10:26.429Z,16.10
2019-05-22T11:12:55.146Z,12.03
2019-05-22T11:15:25.300Z,16.07
2019-05-22T11:17:54.485Z,13.38
2019-05-22T11:20:24.581Z,12.03
2019-05-22T11:22:54.068Z,7.12
2019-05-22T11:25:23.475Z,11.22
2019-05-22T11:27:53.990Z,15.70
2019-05-22T11:30:23.983Z,14.10
2019-05-22T11:32:54.095Z,16.40
2019-05-22T11:35:24.019Z,11.93
2019-05-22T11:37:53.331Z,11.88
2019-05-22T11:40:23.840Z,13.45
2019-05-22T11:42:53.809Z,16.25
2019-05-22T11:45:22.790Z,16.85
2019-05-22T11:47:52.136Z,16.17
2019-05-22T11:50:22.032Z,15.98
2019-05-22T11:52:51.334Z,8.10
2019-05-22T11:55:21.173Z,13.28
2019-05-22T11:57:51.892Z,7.30
2019-05-22T12:00:21.351Z,14.10
2019-05-22T12:02:51.789Z,13.18
2019-05-22T12:05:21.038Z,20.15
2019-05-22T12:07:50.202Z,15.97
2019-05-22T12:10:22.287Z,17.75
2019-05-22T12:12:52.910Z,16.57
2019-05-22T12:15:25.222Z,17.00
2019-05-22T12:17:54.247Z,13.58
2019-05-22T12:20:24.939Z,15.65
2019-05-22T12:22:53.476Z,14.55
2019-05-22T12:25:22.969Z,14.45
2019-05-22T12:27:51.903Z,11.50
2019-05-22T12:30:22.238Z,20.08
2019-05-22T12:32:51.998Z,18.87
2019-05-22T12:35:21.900Z,16.45
2019-05-22T12:37:51.316Z,12.87
2019-05-22T12:40:21.999Z,10.63
2019-05-22T12:42:52.092Z,11.00
2019-05-22T12:45:25.488Z,12.93
2019-05-22T12:47:55.257Z,11.63
2019-05-22T12:50:27.635Z,12.82
2019-05-22T12:52:56.434Z,12.88
2019-05-22T12:55:25.433Z,14.43
2019-05-22T12:57:55.675Z,11.38
2019-05-22T13:00:27.016Z,17.45
2019-05-22T13:02:58.740Z,11.57
2019-05-22T13:05:28.691Z,15.03
2019-05-22T13:07:58.609Z,10.70
2019-05-22T13:10:28.659Z,17.77
2019-05-22T13:12:57.755Z,12.37
2019-05-22T13:15:28.414Z,8.88
2019-05-22T13:17:58.302Z,15.60
2019-05-22T13:20:41.908Z,15.00
2019-05-22T13:23:03.425Z,9.45
2019-05-22T13:25:36.059Z,11.45
2019-05-22T13:28:05.625Z,12.47
2019-05-22T13:30:35.881Z,15.78
2019-05-22T13:33:06.115Z,9.75
2019-05-22T13:35:36.270Z,9.28
2019-05-22T13:38:06.171Z,11.12
2019-05-22T13:40:35.839Z,13.32
2019-05-22T13:43:05.477Z,13.03
2019-05-22T13:45:34.690Z,15.43
2019-05-22T13:48:03.451Z,9.90
2019-05-22T13:50:33.028Z,15.72
2019-05-22T13:53:03.830Z,9.65
2019-05-22T13:55:33.335Z,6.60
2019-05-22T13:58:02.445Z,9.78
2019-05-22T14:00:32.024Z,10.35
2019-05-22T14:03:00.912Z,9.65
2019-05-22T14:05:31.257Z,11.15
2019-05-22T14:08:00.620Z,8.60
2019-05-22T14:10:29.411Z,9.60
2019-05-22T14:12:58.248Z,8.85
2019-05-22T14:15:47.313Z,8.70
2019-05-22T14:17:58.421Z,7.25
2019-05-22T14:20:28.260Z,7.05
2019-05-22T14:22:56.961Z,11.93
2019-05-22T14:25:26.670Z,6.03
2019-05-22T14:27:55.746Z,15.78
2019-05-22T14:30:27.398Z,10.43
2019-05-22T14:32:57.978Z,9.90
2019-05-22T14:35:46.587Z,8.38
2019-05-22T14:37:59.969Z,11.12
2019-05-22T14:40:28.938Z,10.10
2019-05-22T14:42:57.899Z,15.68
2019-05-22T14:45:26.705Z,9.63
2019-05-22T14:48:07.171Z,12.65
2019-05-22T14:50:35.944Z,10.58
2019-05-22T14:53:04.846Z,8.95
2019-05-22T14:55:34.873Z,19.37
2019-05-22T14:58:05.445Z,10.70
2019-05-22T15:00:34.513Z,18.73
2019-05-22T15:03:03.721Z,15.98
2019-05-22T15:05:32.974Z,13.62
2019-05-22T15:08:01.544Z,9.63
2019-05-22T15:10:30.335Z,7.67
2019-05-22T15:12:59.249Z,11.95
2019-05-22T15:15:28.632Z,8.90
2019-05-22T15:17:57.266Z,7.50
2019-05-22T15:20:27.743Z,15.10
2019-05-22T15:22:57.076Z,14.25
2019-05-22T15:25:27.554Z,11.85
2019-05-22T15:27:56.441Z,15.18
2019-05-22T15:30:25.460Z,8.70
2019-05-22T15:32:54.016Z,11.20
2019-05-22T15:35:23.594Z,12.25
2019-05-22T15:37:54.494Z,10.90
2019-05-22T15:40:24.481Z,11.78
2019-05-22T15:42:53.975Z,8.90
2019-05-22T15:45:25.806Z,10.53
2019-05-22T15:47:57.631Z,7.67
2019-05-22T15:50:33.975Z,15.30
2019-05-22T15:53:09.019Z,9.80
2019-05-22T15:55:39.119Z,10.55
2019-05-22T15:58:08.315Z,10.28
2019-05-22T16:00:39.142Z,8.85
2019-05-22T16:03:12.056Z,7.30
2019-05-22T16:05:42.349Z,8.10
2019-05-22T16:08:12.378Z,12.10
2019-05-22T16:10:44.163Z,9.63
2019-05-22T16:13:15.150Z,7.55
2019-05-22T16:15:46.421Z,11.18
2019-05-22T16:18:18.988Z,8.90
2019-05-22T16:20:48.716Z,11.25
2019-05-22T16:23:21.160Z,10.85
2019-05-22T16:25:49.102Z,12.00
2019-05-22T16:28:18.682Z,12.78
2019-05-22T16:30:47.816Z,8.08
2019-05-22T16:33:17.229Z,9.88
2019-05-22T16:35:46.284Z,10.00
2019-05-22T16:38:15.769Z,10.15
2019-05-22T16:40:44.898Z,10.13
2019-05-22T16:43:14.406Z,7.20
2019-05-22T16:45:43.385Z,9.43
2019-05-22T16:48:27.805Z,8.85
2019-05-22T16:50:45.070Z,8.08
2019-05-22T16:53:14.557Z,7.58
2019-05-22T16:56:02.965Z,10.33
2019-05-22T16:58:32.530Z,4.28
2019-05-22T17:01:01.074Z,7.33
2019-05-22T17:03:31.151Z,7.15
2019-05-22T17:06:00.313Z,6.15
2019-05-22T17:08:29.602Z,3.50
2019-05-22T17:10:59.414Z,6.25
2019-05-22T17:13:30.404Z,5.58
2019-05-22T17:15:59.369Z,6.17
2019-05-22T17:18:45.934Z,6.72
2019-05-22T17:21:02.250Z,7.65
2019-05-22T17:23:32.505Z,6.25
2019-05-22T17:26:02.581Z,6.78
2019-05-22T17:28:31.726Z,7.12
2019-05-22T17:31:00.786Z,11.22
2019-05-22T17:33:31.216Z,8.23
2019-05-22T17:36:05.175Z,5.40
2019-05-22T17:38:32.048Z,8.28
2019-05-22T17:41:03.465Z,5.22
2019-05-22T17:43:33.678Z,5.95
2019-05-22T17:46:02.868Z,6.95
2019-05-22T17:48:33.216Z,8.38
2019-05-22T17:51:02.391Z,5.40
2019-05-22T17:53:31.503Z,5.87
2019-05-22T17:55:59.981Z,5.97
2019-05-22T17:58:48.001Z,9.43
2019-05-22T18:01:18.541Z,6.17
2019-05-22T18:03:47.423Z,8.70
2019-05-22T18:06:16.340Z,5.67
2019-05-22T18:08:45.325Z,8.98
2019-05-22T18:11:14.321Z,5.08
2019-05-22T18:13:48.548Z,10.55
2019-05-22T18:16:17.121Z,7.60
2019-05-22T18:18:45.836Z,10.93
2019-05-22T18:21:14.706Z,8.65
2019-05-22T18:23:43.252Z,9.25
2019-05-22T18:26:11.994Z,5.90
2019-05-22T18:28:40.629Z,9.03
2019-05-22T18:31:09.361Z,6.62
2019-05-22T18:33:37.930Z,9.03
2019-05-22T18:36:06.540Z,6.95
2019-05-22T18:38:35.231Z,8.30
2019-05-22T18:41:03.907Z,8.25
2019-05-22T18:43:32.453Z,5.78
2019-05-22T18:46:00.992Z,8.03
2019-05-22T18:48:32.872Z,6.60
2019-05-22T18:51:00.120Z,6.70
2019-05-22T18:53:29.166Z,7.17
2019-05-22T18:55:57.733Z,5.92
2019-05-22T18:58:26.416Z,6.33
2019-05-22T19:00:55.157Z,6.58
2019-05-22T19:03:24.018Z,6.78
2019-05-22T19:05:53.160Z,7.60
2019-05-22T19:08:21.793Z,4.60
2019-05-22T19:10:50.825Z,5.10
2019-05-22T19:13:19.714Z,4.87
2019-05-22T19:15:48.940Z,5.58
2019-05-22T19:18:17.463Z,9.38
2019-05-22T19:20:46.097Z,7.53
2019-05-22T19:23:14.794Z,6.90
2019-05-22T19:25:43.382Z,7.07
2019-05-22T19:28:12.121Z,5.03
2019-05-22T19:30:40.742Z,5.80
2019-05-22T19:33:09.958Z,5.90
2019-05-22T19:35:38.520Z,5.67
2019-05-22T19:38:07.294Z,7.15
2019-05-22T19:40:36.508Z,6.97
2019-05-22T19:43:06.305Z,5.50
2019-05-22T19:45:35.929Z,7.12
2019-05-22T19:48:04.679Z,4.72
2019-05-22T19:50:33.552Z,2.92
2019-05-22T19:53:17.603Z,6.20
2019-05-22T19:55:33.627Z,6.95
2019-05-22T19:58:02.505Z,4.90
2019-05-22T20:00:31.744Z,4.53
2019-05-22T20:03:00.456Z,5.40
2019-05-22T20:05:29.770Z,5.58
2019-05-22T20:07:59.222Z,4.90
2019-05-22T20:10:27.834Z,5.40
2019-05-22T20:12:57.637Z,5.58
2019-05-22T20:15:28.073Z,3.87
2019-05-22T20:17:57.457Z,3.90
2019-05-22T20:20:27.361Z,6.33
2019-05-22T20:22:56.935Z,4.00
2019-05-22T20:25:25.647Z,3.72
2019-05-22T20:27:56.014Z,4.28
2019-05-22T20:30:24.629Z,5.67
2019-05-22T20:32:53.696Z,4.62
2019-05-22T20:35:22.326Z,2.75
2019-05-22T20:37:51.419Z,5.07
2019-05-22T20:40:22.320Z,3.20
2019-05-22T20:42:51.634Z,4.12
2019-05-22T20:45:22.402Z,3.33
2019-05-22T20:48:06.297Z,3.00
2019-05-22T20:50:36.478Z,5.35
2019-05-22T20:53:06.069Z,4.75
2019-05-22T20:55:36.110Z,4.78
2019-05-22T20:58:06.487Z,3.90
2019-05-22T21:00:36.489Z,5.37
2019-05-22T21:03:08.534Z,7.00
2019-05-22T21:05:57.903Z,3.15
2019-05-22T21:08:27.875Z,4.50
2019-05-22T21:10:57.109Z,5.03
2019-05-22T21:13:26.654Z,3.77
2019-05-22T21:15:57.340Z,3.92
2019-05-22T21:18:29.566Z,3.10
2019-05-22T21:20:58.278Z,4.85
2019-05-22T21:23:29.458Z,2.90
2019-05-22T21:25:58.374Z,3.50
2019-05-22T21:28:27.921Z,3.72
2019-05-22T21:30:57.609Z,4.87
2019-05-22T21:33:26.656Z,6.42
2019-05-22T21:35:55.215Z,4.37
2019-05-22T21:38:24.684Z,6.45
2019-05-22T21:40:55.874Z,4.13
2019-05-22T21:43:24.730Z,5.83
2019-05-22T21:45:53.206Z,4.37
2019-05-22T21:48:22.681Z,4.22
2019-05-22T21:50:51.669Z,4.72
2019-05-22T21:53:20.672Z,3.87
2019-05-22T21:56:03.633Z,3.60
2019-05-22T21:58:20.372Z,5.97
2019-05-22T22:00:56.964Z,5.42
2019-05-22T22:03:29.334Z,4.22
2019-05-22T22:05:59.126Z,4.25
2019-05-22T22:08:28.469Z,8.25
2019-05-22T22:10:58.001Z,5.80
2019-05-22T22:13:27.071Z,5.83
2019-05-22T22:15:56.946Z,5.42
2019-05-22T22:18:26.244Z,4.55
2019-05-22T22:20:56.515Z,4.70
2019-05-22T22:23:25.824Z,4.17
2019-05-22T22:25:54.806Z,5.63
2019-05-22T22:28:25.321Z,5.97
2019-05-22T22:30:57.550Z,7.42
2019-05-22T22:33:29.744Z,5.60
2019-05-22T22:35:58.722Z,7.17
2019-05-22T22:38:29.001Z,12.40
2019-05-22T22:40:57.608Z,4.70
2019-05-22T22:43:30.412Z,7.85
2019-05-22T22:46:03.431Z,4.40
2019-05-22T22:48:34.020Z,6.72
2019-05-22T22:51:06.098Z,5.53
2019-05-22T22:53:34.943Z,5.47
2019-05-22T22:56:04.866Z,8.58
2019-05-22T22:58:35.828Z,4.50
2019-05-22T23:01:07.584Z,6.03
2019-05-22T23:03:38.547Z,5.50
2019-05-22T23:06:11.537Z,7.12
2019-05-22T23:08:41.550Z,5.90
2019-05-22T23:11:11.033Z,5.58
2019-05-22T23:13:41.035Z,4.50
2019-05-22T23:16:11.729Z,7.03
2019-05-22T23:18:46.999Z,8.65
2019-05-22T23:21:16.111Z,4.85
2019-05-22T23:23:44.095Z,5.78
2019-05-22T23:26:13.144Z,5.03
2019-05-22T23:28:42.965Z,6.28
2019-05-22T23:31:12.329Z,6.08
2019-05-22T23:33:40.971Z,5.92
2019-05-22T23:36:12.406Z,6.12
2019-05-22T23:38:41.773Z,5.53
2019-05-22T23:41:12.060Z,4.83
2019-05-22T23:43:42.294Z,5.70
2019-05-22T23:46:13.600Z,5.30
2019-05-22T23:48:44.289Z,5.05
2019-05-22T23:51:12.849Z,6.53
2019-05-22T23:53:43.054Z,5.25
2019-05-22T23:56:11.685Z,4.72
2019-05-22T23:58:52.117Z,7.22
